Time;durP1;ratioP1;P1;durP2;ratioP2;P2;SDS_P1;SDS_P2;PMS_P1;PMS_P2;Temp;Humidity;BMP_temperature;BMP_pressure;BME280_temperature;BME280_humidity;BME280_pressure;Samples;Min_cycle;Max_cycle;Signal;HPM_P1;HPM_P2
2021/07/09 00:02:40;;;;;;;6.43;4.00;;;16.80;98.20;;;;;;5052934;28;20463;-76
2021/07/09 00:05:06;;;;;;;8.33;4.33;;;16.80;98.10;;;;;;5051101;28;20188;-74
2021/07/09 00:07:32;;;;;;;4.67;3.77;;;16.80;98.20;;;;;;5053401;28;20434;-76
2021/07/09 00:09:58;;;;;;;10.37;4.60;;;16.70;98.00;;;;;;5054320;28;20532;-76
2021/07/09 00:12:24;;;;;;;5.90;3.87;;;16.80;98.20;;;;;;5053786;28;20685;-77
2021/07/09 00:14:49;;;;;;;11.20;4.70;;;16.70;98.20;;;;;;5054258;28;20210;-76
2021/07/09 00:17:15;;;;;;;6.87;4.67;;;16.80;98.20;;;;;;5054444;28;20226;-75
2021/07/09 00:19:41;;;;;;;7.27;4.27;;;16.80;98.10;;;;;;5054559;28;20210;-78
2021/07/09 00:22:07;;;;;;;8.70;5.03;;;16.80;98.20;;;;;;5053429;28;20192;-77
2021/07/09 00:24:34;;;;;;;5.07;3.73;;;16.80;97.90;;;;;;5054844;28;20516;-77
2021/07/09 00:27:03;;;;;;;8.40;5.30;;;16.80;98.10;;;;;;5054449;28;20537;-76
2021/07/09 00:29:29;;;;;;;9.30;4.37;;;16.80;98.20;;;;;;5049746;28;20291;-76
2021/07/09 00:31:55;;;;;;;6.90;4.30;;;16.80;97.90;;;;;;5051955;28;20914;-76
2021/07/09 00:34:21;;;;;;;6.50;3.97;;;16.90;97.90;;;;;;5048891;28;20524;-76
2021/07/09 00:36:47;;;;;;;7.70;3.40;;;16.80;97.60;;;;;;5068801;28;20187;-77
2021/07/09 00:39:13;;;;;;;7.90;4.43;;;16.80;97.50;;;;;;5052898;28;20458;-77
2021/07/09 00:41:39;;;;;;;6.30;4.27;;;16.90;97.50;;;;;;5053172;28;20426;-78
2021/07/09 00:44:06;;;;;;;6.43;3.47;;;16.90;97.30;;;;;;5052685;28;20195;-77
2021/07/09 00:46:40;;;;;;;6.80;4.10;;;17.00;97.30;;;;;;5051937;28;20548;-77
2021/07/09 00:49:06;;;;;;;7.90;4.20;;;17.00;97.10;;;;;;5054035;28;20554;-78
2021/07/09 00:51:33;;;;;;;6.83;4.20;;;17.00;96.80;;;;;;5056001;28;20453;-75
2021/07/09 00:53:59;;;;;;;6.40;4.43;;;17.10;96.90;;;;;;5059195;28;20423;-75
2021/07/09 00:56:26;;;;;;;9.60;4.37;;;17.10;97.00;;;;;;5054228;28;20431;-76
2021/07/09 00:58:53;;;;;;;6.67;4.83;;;17.00;97.20;;;;;;5061524;28;20469;-76
2021/07/09 01:01:19;;;;;;;8.93;5.60;;;16.90;97.50;;;;;;5064407;28;20498;-75
2021/07/09 01:03:45;;;;;;;7.77;5.53;;;16.80;97.90;;;;;;5059712;28;20457;-77
2021/07/09 01:06:13;;;;;;;9.10;5.70;;;16.70;98.40;;;;;;5053005;28;20244;-75
2021/07/09 01:08:39;;;;;;;9.50;5.80;;;16.60;99.00;;;;;;5051542;28;20482;-77
2021/07/09 01:11:04;;;;;;;8.20;5.97;;;16.50;99.30;;;;;;5052656;28;20966;-78
2021/07/09 01:13:30;;;;;;;9.53;6.00;;;16.50;99.60;;;;;;5052953;28;20183;-74
2021/07/09 01:15:56;;;;;;;8.50;5.80;;;16.40;99.80;;;;;;5050850;28;20818;-75
2021/07/09 01:18:22;;;;;;;8.30;5.47;;;16.40;99.90;;;;;;5051738;28;20580;-76
2021/07/09 01:20:48;;;;;;;7.50;5.30;;;16.30;99.90;;;;;;5052799;28;20230;-74
2021/07/09 01:23:18;;;;;;;9.20;5.17;;;16.40;99.90;;;;;;5053138;28;20907;-75
2021/07/09 01:25:44;;;;;;;8.60;5.40;;;16.30;99.70;;;;;;5053494;28;20187;-75
2021/07/09 01:28:10;;;;;;;7.40;5.20;;;16.30;99.90;;;;;;5055132;28;20455;-76
2021/07/09 01:30:37;;;;;;;10.27;5.97;;;16.30;99.90;;;;;;5064135;28;20243;-75
2021/07/09 01:33:03;;;;;;;10.20;6.13;;;16.30;99.90;;;;;;5065384;28;20432;-76
2021/07/09 01:35:30;;;;;;;6.90;4.87;;;16.30;99.90;;;;;;5059015;28;20490;-76
2021/07/09 01:38:09;;;;;;;10.43;5.97;;;16.30;99.90;;;;;;5059849;28;20452;-74
2021/07/09 01:40:37;;;;;;;6.87;4.70;;;16.30;99.90;;;;;;5067388;28;20429;-74
2021/07/09 01:43:04;;;;;;;7.97;5.50;;;16.20;99.40;;;;;;5052862;28;20423;-75
2021/07/09 01:45:31;;;;;;;7.80;6.00;;;16.20;99.10;;;;;;5044514;28;20433;-76
2021/07/09 01:47:57;;;;;;;5.70;4.43;;;16.20;99.30;;;;;;5051166;28;20781;-75
2021/07/09 01:50:24;;;;;;;10.90;5.60;;;16.20;99.40;;;;;;5047735;28;20462;-75
2021/07/09 01:52:50;;;;;;;8.90;5.40;;;16.30;99.40;;;;;;5049582;28;20561;-75
2021/07/09 01:55:17;;;;;;;6.03;4.97;;;16.30;99.30;;;;;;5051541;28;20427;-75
2021/07/09 01:57:44;;;;;;;9.50;4.80;;;16.30;99.40;;;;;;5048048;28;20436;-74
2021/07/09 02:00:13;;;;;;;9.83;4.67;;;16.30;99.50;;;;;;5052157;28;20530;-74
2021/07/09 02:02:42;;;;;;;6.53;4.50;;;16.20;99.30;;;;;;5048445;28;20425;-75
2021/07/09 02:05:14;;;;;;;10.13;4.77;;;16.10;99.20;;;;;;5052579;28;20436;-75
2021/07/09 02:07:42;;;;;;;8.00;4.80;;;16.10;99.30;;;;;;5050561;28;20428;-75
2021/07/09 02:10:10;;;;;;;6.17;4.00;;;16.20;99.40;;;;;;5051663;28;20519;-74
2021/07/09 02:12:36;;;;;;;13.13;4.17;;;16.10;99.00;;;;;;5051285;28;20421;-76
2021/07/09 02:15:09;;;;;;;8.63;3.90;;;16.10;99.10;;;;;;5053516;28;20532;-75
2021/07/09 02:17:35;;;;;;;6.87;4.63;;;16.10;99.10;;;;;;5050351;28;20947;-74
2021/07/09 02:20:01;;;;;;;7.10;4.80;;;16.10;99.10;;;;;;5049441;28;20459;-74
2021/07/09 02:22:28;;;;;;;6.17;3.77;;;16.10;99.20;;;;;;5051449;28;20185;-75
2021/07/09 02:24:54;;;;;;;6.80;4.40;;;16.10;99.00;;;;;;5052212;28;20459;-75
2021/07/09 02:27:20;;;;;;;9.70;4.90;;;16.10;99.00;;;;;;5055949;28;20423;-74
2021/07/09 02:29:47;;;;;;;6.80;4.50;;;16.10;99.00;;;;;;5054959;28;21004;-74
2021/07/09 02:32:13;;;;;;;6.73;4.47;;;16.10;99.00;;;;;;5050012;28;20780;-75
2021/07/09 02:34:40;;;;;;;6.03;4.30;;;16.10;99.20;;;;;;5049297;28;20549;-76
2021/07/09 02:37:07;;;;;;;5.77;4.30;;;16.00;99.00;;;;;;5050145;28;20434;-77
2021/07/09 02:39:34;;;;;;;8.53;4.20;;;16.00;98.90;;;;;;5049893;28;20929;-76
2021/07/09 02:42:00;;;;;;;7.00;5.10;;;16.00;98.80;;;;;;5049865;28;20436;-76
2021/07/09 02:44:26;;;;;;;7.90;4.73;;;16.00;99.00;;;;;;5050797;28;20476;-75
2021/07/09 02:46:52;;;;;;;8.30;4.40;;;16.00;99.40;;;;;;5048647;28;20425;-76
2021/07/09 02:49:19;;;;;;;7.80;5.00;;;16.00;99.20;;;;;;5044158;28;20472;-76
2021/07/09 02:51:45;;;;;;;6.17;4.30;;;16.00;98.90;;;;;;5050118;28;20917;-76
2021/07/09 02:54:11;;;;;;;8.40;4.73;;;16.00;98.80;;;;;;5050522;28;20429;-75
2021/07/09 02:56:37;;;;;;;6.10;4.07;;;16.00;98.80;;;;;;5053526;28;20884;-77
2021/07/09 02:59:03;;;;;;;7.87;4.63;;;16.00;98.90;;;;;;5054039;28;20474;-75
2021/07/09 03:01:29;;;;;;;8.03;5.13;;;16.00;99.00;;;;;;5055086;28;20240;-75
2021/07/09 03:03:55;;;;;;;6.10;4.17;;;16.00;99.00;;;;;;5052497;28;20793;-77
2021/07/09 03:06:22;;;;;;;7.20;4.63;;;16.00;99.10;;;;;;5052374;28;20213;-75
2021/07/09 03:08:48;;;;;;;11.00;4.90;;;16.00;99.20;;;;;;5054528;28;20552;-75
2021/07/09 03:11:14;;;;;;;11.03;4.23;;;16.00;99.30;;;;;;5051853;28;20439;-76
2021/07/09 03:13:40;;;;;;;8.80;4.10;;;16.00;99.20;;;;;;5050886;28;20443;-74
2021/07/09 03:16:06;;;;;;;8.40;4.23;;;16.00;98.90;;;;;;5049746;28;20433;-76
2021/07/09 03:18:32;;;;;;;9.43;4.47;;;16.00;99.10;;;;;;5049801;28;20358;-74
2021/07/09 03:20:58;;;;;;;7.23;5.13;;;16.00;99.10;;;;;;5049620;28;20188;-77
2021/07/09 03:23:24;;;;;;;9.47;4.70;;;16.00;98.80;;;;;;5050052;28;20246;-75
2021/07/09 03:25:49;;;;;;;12.67;4.70;;;16.00;98.70;;;;;;5049842;28;20419;-75
2021/07/09 03:28:15;;;;;;;10.80;5.20;;;16.00;98.70;;;;;;5049840;28;20222;-74
2021/07/09 03:30:42;;;;;;;7.97;5.00;;;16.00;98.70;;;;;;5049478;28;20212;-74
2021/07/09 03:33:09;;;;;;;8.23;5.03;;;16.00;98.60;;;;;;5049732;28;20427;-76
2021/07/09 03:35:40;;;;;;;8.83;5.30;;;16.10;98.60;;;;;;5049067;28;20427;-76
2021/07/09 03:38:06;;;;;;;7.90;5.10;;;16.10;98.50;;;;;;5048471;28;21053;-75
2021/07/09 03:40:32;;;;;;;10.63;5.03;;;16.20;98.40;;;;;;5050580;28;20431;-75
2021/07/09 03:42:58;;;;;;;7.13;5.13;;;16.10;98.10;;;;;;5050444;28;20423;-75
2021/07/09 03:45:23;;;;;;;9.30;5.20;;;16.10;98.20;;;;;;5050322;28;20184;-76
2021/07/09 03:47:49;;;;;;;8.40;5.13;;;16.10;98.30;;;;;;5048800;28;20423;-74
2021/07/09 03:50:15;;;;;;;9.63;5.27;;;16.10;98.40;;;;;;5049947;28;20217;-76
2021/07/09 03:52:41;;;;;;;9.97;5.80;;;16.10;98.50;;;;;;5048660;28;20187;-73
2021/07/09 03:55:08;;;;;;;8.30;4.70;;;16.00;98.40;;;;;;5049263;28;20181;-73
2021/07/09 03:57:33;;;;;;;8.60;5.13;;;16.00;98.40;;;;;;5048657;28;20437;-74
2021/07/09 04:00:00;;;;;;;8.80;4.87;;;16.10;97.90;;;;;;5050233;28;20443;-74
2021/07/09 04:02:25;;;;;;;8.83;5.37;;;16.10;98.10;;;;;;5048327;28;20669;-73
2021/07/09 04:04:51;;;;;;;8.70;5.63;;;16.10;98.10;;;;;;5049641;28;21476;-73
2021/07/09 04:07:17;;;;;;;9.77;5.00;;;16.10;98.00;;;;;;5048290;28;20214;-74
2021/07/09 04:09:42;;;;;;;8.10;4.93;;;16.10;97.80;;;;;;5055484;28;20243;-75
2021/07/09 04:12:08;;;;;;;7.17;4.47;;;16.10;97.60;;;;;;5051786;28;20210;-75
2021/07/09 04:14:34;;;;;;;7.40;4.90;;;16.20;97.50;;;;;;5049398;28;20682;-74
2021/07/09 04:17:00;;;;;;;10.13;4.80;;;16.20;97.40;;;;;;5049590;28;20599;-75
2021/07/09 04:19:25;;;;;;;8.50;4.17;;;16.30;97.30;;;;;;5049173;28;20278;-77
2021/07/09 04:21:51;;;;;;;7.00;4.60;;;16.10;97.30;;;;;;5047505;28;20215;-75
2021/07/09 04:24:17;;;;;;;10.60;5.80;;;16.10;97.50;;;;;;5046760;28;20185;-76
2021/07/09 04:26:43;;;;;;;6.70;4.30;;;16.10;97.70;;;;;;5048315;28;20213;-74
2021/07/09 04:29:09;;;;;;;8.00;5.03;;;16.10;97.80;;;;;;5048940;28;20250;-74
2021/07/09 04:31:35;;;;;;;9.07;5.23;;;16.10;97.70;;;;;;5047026;28;20431;-75
2021/07/09 04:34:01;;;;;;;11.00;5.43;;;16.10;97.80;;;;;;5049987;28;20200;-77
2021/07/09 04:36:26;;;;;;;8.20;4.50;;;16.10;97.90;;;;;;5050532;28;20182;-75
2021/07/09 04:38:52;;;;;;;11.07;4.10;;;16.00;98.20;;;;;;5051327;28;20205;-78
2021/07/09 04:41:19;;;;;;;8.30;5.53;;;16.00;98.30;;;;;;5050998;28;20188;-76
2021/07/09 04:43:44;;;;;;;8.17;4.83;;;16.00;98.60;;;;;;5053315;28;20458;-77
2021/07/09 04:46:10;;;;;;;7.83;4.67;;;16.00;98.90;;;;;;5055337;28;20864;-76
2021/07/09 04:48:36;;;;;;;9.93;4.53;;;15.80;99.20;;;;;;5055333;28;20200;-75
2021/07/09 04:51:02;;;;;;;8.40;5.23;;;15.80;99.20;;;;;;5055376;28;20184;-75
2021/07/09 04:53:29;;;;;;;8.67;5.17;;;15.70;99.40;;;;;;5055322;28;20185;-77
2021/07/09 04:55:55;;;;;;;8.63;5.37;;;15.60;99.60;;;;;;5054912;28;20908;-75
2021/07/09 04:58:20;;;;;;;7.23;5.40;;;15.60;99.90;;;;;;5054177;28;20482;-76
2021/07/09 05:00:46;;;;;;;8.13;5.20;;;15.60;99.90;;;;;;5055831;28;20186;-76
2021/07/09 05:03:12;;;;;;;8.20;5.70;;;15.70;99.90;;;;;;5056429;28;20718;-77
2021/07/09 05:05:37;;;;;;;6.87;5.17;;;15.80;99.90;;;;;;5053850;28;20188;-75
2021/07/09 05:08:04;;;;;;;7.23;5.27;;;15.70;99.90;;;;;;5055845;28;20248;-76
2021/07/09 05:10:30;;;;;;;9.40;4.33;;;15.80;99.90;;;;;;5059398;28;20204;-76
2021/07/09 05:12:56;;;;;;;6.13;4.07;;;15.80;99.50;;;;;;5059368;28;20981;-77
2021/07/09 05:15:22;;;;;;;8.13;5.20;;;15.80;99.40;;;;;;5069557;28;20187;-78
2021/07/09 05:17:48;;;;;;;8.43;5.73;;;15.80;99.30;;;;;;5067196;28;20445;-74
2021/07/09 05:20:14;;;;;;;5.73;4.37;;;15.80;99.20;;;;;;5070175;28;20203;-76
2021/07/09 05:22:40;;;;;;;8.27;4.93;;;15.90;99.20;;;;;;5068521;28;20196;-76
2021/07/09 05:25:07;;;;;;;5.87;4.60;;;15.80;98.90;;;;;;5064117;28;20427;-76
2021/07/09 05:27:34;;;;;;;8.63;4.80;;;15.80;99.20;;;;;;5060018;28;20572;-76
2021/07/09 05:30:00;;;;;;;6.17;4.60;;;15.80;99.20;;;;;;5056397;28;20481;-77
2021/07/09 05:32:27;;;;;;;8.33;5.87;;;15.70;99.30;;;;;;5055245;28;20423;-76
2021/07/09 05:34:55;;;;;;;8.33;5.67;;;15.70;99.20;;;;;;5054471;28;20884;-76
2021/07/09 05:37:22;;;;;;;10.00;5.57;;;15.70;99.00;;;;;;5053932;28;20451;-76
2021/07/09 05:39:49;;;;;;;8.23;4.90;;;15.70;99.10;;;;;;5053691;28;20442;-75
2021/07/09 05:42:15;;;;;;;6.10;4.70;;;15.70;99.10;;;;;;5051689;28;20488;-76
2021/07/09 05:44:42;;;;;;;8.70;5.27;;;15.70;99.00;;;;;;5053301;28;20940;-76
2021/07/09 05:47:09;;;;;;;7.00;4.50;;;15.80;98.80;;;;;;5052863;28;20435;-76
2021/07/09 05:49:35;;;;;;;7.50;4.87;;;15.80;98.70;;;;;;5051695;28;20520;-76
2021/07/09 05:52:00;;;;;;;9.70;4.47;;;15.90;98.90;;;;;;5052415;28;20419;-76
2021/07/09 05:54:26;;;;;;;8.00;4.77;;;15.90;98.80;;;;;;5051723;28;20246;-76
2021/07/09 05:56:52;;;;;;;8.43;4.80;;;15.90;98.90;;;;;;5053001;28;20193;-75
2021/07/09 05:59:18;;;;;;;7.77;5.40;;;16.00;98.50;;;;;;5051620;28;20867;-76
2021/07/09 06:01:44;;;;;;;6.77;4.67;;;16.00;98.30;;;;;;5052533;28;20505;-77
2021/07/09 06:04:10;;;;;;;5.97;4.53;;;16.00;97.90;;;;;;5053458;28;20179;-78
2021/07/09 06:06:36;;;;;;;8.07;5.30;;;16.10;98.20;;;;;;5053535;28;20176;-75
2021/07/09 06:09:02;;;;;;;8.67;4.87;;;16.20;98.20;;;;;;5052967;28;21077;-76
2021/07/09 06:11:29;;;;;;;7.70;5.63;;;16.10;98.10;;;;;;5051087;28;20188;-75
2021/07/09 06:13:55;;;;;;;8.00;5.37;;;16.10;98.30;;;;;;5052759;28;20421;-75
2021/07/09 06:16:21;;;;;;;7.67;5.53;;;16.20;98.50;;;;;;5059428;28;20427;-76
2021/07/09 06:18:47;;;;;;;11.00;5.73;;;16.30;98.50;;;;;;5052650;28;20223;-76
2021/07/09 06:21:12;;;;;;;9.90;5.63;;;16.30;98.40;;;;;;5051866;28;20428;-75
2021/07/09 06:23:38;;;;;;;7.20;5.43;;;16.40;98.50;;;;;;5052621;28;20215;-78
2021/07/09 06:26:04;;;;;;;8.47;5.07;;;16.40;98.40;;;;;;5052455;28;20192;-77
2021/07/09 06:28:30;;;;;;;11.10;5.07;;;16.30;98.00;;;;;;5048720;28;20216;-77
2021/07/09 06:30:55;;;;;;;8.77;6.40;;;16.40;98.10;;;;;;5051917;28;20181;-75
2021/07/09 06:33:21;;;;;;;12.17;6.10;;;16.40;98.00;;;;;;5054491;28;20283;-77
2021/07/09 06:35:47;;;;;;;10.53;6.13;;;16.40;97.90;;;;;;5052477;28;20185;-75
2021/07/09 06:38:12;;;;;;;8.30;5.63;;;16.40;98.00;;;;;;5052236;28;20210;-77
2021/07/09 06:40:38;;;;;;;7.37;5.53;;;16.40;98.20;;;;;;5052029;28;20669;-76
2021/07/09 06:43:05;;;;;;;7.53;5.70;;;16.40;98.30;;;;;;5052475;28;20192;-75
2021/07/09 06:45:31;;;;;;;10.33;5.63;;;16.50;97.80;;;;;;5052630;28;20229;-75
2021/07/09 06:47:56;;;;;;;9.73;5.80;;;16.60;97.80;;;;;;5052475;28;20426;-75
2021/07/09 06:50:22;;;;;;;9.97;6.30;;;16.60;97.50;;;;;;5052223;28;21036;-76
2021/07/09 06:52:48;;;;;;;12.70;6.70;;;16.50;97.70;;;;;;5052364;28;20265;-76
2021/07/09 06:55:14;;;;;;;7.03;5.53;;;16.40;97.50;;;;;;5068212;28;20626;-78
2021/07/09 06:57:46;;;;;;;11.67;6.90;;;16.40;97.80;;;;;;5052972;28;20266;-76
2021/07/09 07:00:17;;;;;;;8.10;6.00;;;16.30;97.50;;;;;;5052050;28;20509;-77
2021/07/09 07:02:43;;;;;;;8.60;6.07;;;16.40;97.70;;;;;;5052297;28;20420;-74
2021/07/09 07:05:10;;;;;;;9.77;6.10;;;16.40;97.40;;;;;;5052025;28;20525;-75
2021/07/09 07:07:36;;;;;;;8.67;5.90;;;16.40;97.50;;;;;;5052673;28;20869;-75
2021/07/09 07:10:03;;;;;;;10.17;6.20;;;16.40;97.50;;;;;;5052104;28;20513;-75
2021/07/09 07:12:29;;;;;;;9.57;7.33;;;16.50;97.40;;;;;;5052005;28;20425;-75
2021/07/09 07:14:54;;;;;;;11.93;6.80;;;16.60;97.50;;;;;;5052009;28;20477;-77
2021/07/09 07:17:20;;;;;;;9.20;5.40;;;16.70;97.30;;;;;;5051533;28;20181;-75
2021/07/09 07:19:46;;;;;;;8.60;6.37;;;16.80;96.90;;;;;;5051774;28;20296;-76
2021/07/09 07:22:13;;;;;;;7.37;5.50;;;16.80;96.90;;;;;;5045085;28;20222;-76
2021/07/09 07:24:38;;;;;;;9.50;6.23;;;16.90;96.40;;;;;;5050850;28;20864;-74
2021/07/09 07:27:05;;;;;;;10.90;6.10;;;16.90;96.20;;;;;;5051073;28;20457;-77
2021/07/09 07:29:31;;;;;;;9.50;6.27;;;17.00;96.20;;;;;;5050367;28;20676;-76
2021/07/09 07:31:56;;;;;;;7.47;5.50;;;17.00;96.00;;;;;;5052368;28;20431;-75
2021/07/09 07:34:22;;;;;;;11.70;6.20;;;17.00;95.70;;;;;;5052178;28;20204;-75
2021/07/09 07:36:49;;;;;;;8.70;6.20;;;17.20;95.90;;;;;;5052118;28;20181;-77
2021/07/09 07:39:15;;;;;;;8.63;6.07;;;17.30;96.20;;;;;;5052844;28;20318;-78
2021/07/09 07:41:41;;;;;;;8.83;6.13;;;17.40;95.50;;;;;;5052588;28;20451;-75
2021/07/09 07:44:06;;;;;;;8.50;5.70;;;17.50;94.70;;;;;;5051736;28;21181;-76
2021/07/09 07:46:32;;;;;;;12.53;6.10;;;17.60;95.00;;;;;;5052294;28;20434;-76
2021/07/09 07:48:58;;;;;;;9.20;6.87;;;17.70;94.80;;;;;;5051713;28;20556;-75
2021/07/09 07:51:25;;;;;;;6.70;5.60;;;17.80;94.50;;;;;;5050099;28;20184;-78
2021/07/09 07:53:52;;;;;;;6.20;5.33;;;17.90;94.00;;;;;;5053314;28;20461;-78
2021/07/09 07:56:18;;;;;;;11.20;6.40;;;17.90;93.80;;;;;;5052870;28;20456;-75
2021/07/09 07:58:44;;;;;;;9.60;6.00;;;18.00;93.80;;;;;;5051533;28;20454;-77
2021/07/09 08:01:11;;;;;;;11.30;6.90;;;18.00;93.30;;;;;;5052006;28;20492;-77
2021/07/09 08:03:37;;;;;;;9.23;5.60;;;18.00;93.50;;;;;;5053426;28;20909;-76
2021/07/09 08:06:04;;;;;;;6.63;5.10;;;18.10;93.60;;;;;;5053824;28;20481;-78
2021/07/09 08:08:31;;;;;;;8.33;6.10;;;18.10;92.70;;;;;;5052264;28;20436;-77
2021/07/09 08:10:57;;;;;;;7.90;5.80;;;18.10;93.20;;;;;;5055147;28;20806;-78
2021/07/09 08:13:23;;;;;;;9.97;6.20;;;18.30;93.20;;;;;;5052236;28;20441;-77
2021/07/09 08:15:49;;;;;;;7.17;5.83;;;18.40;92.40;;;;;;5051077;28;20427;-76
2021/07/09 08:18:14;;;;;;;8.00;5.93;;;18.50;92.50;;;;;;5052042;28;20197;-75
2021/07/09 08:20:41;;;;;;;10.00;5.93;;;18.70;92.60;;;;;;5052913;28;20195;-75
2021/07/09 08:23:07;;;;;;;11.00;6.00;;;19.00;92.40;;;;;;5053386;28;20194;-75
2021/07/09 08:25:32;;;;;;;7.47;5.50;;;19.20;90.90;;;;;;5052939;28;20487;-75
2021/07/09 08:27:59;;;;;;;7.90;5.43;;;19.20;89.00;;;;;;5052019;28;20423;-76
2021/07/09 08:30:25;;;;;;;8.67;5.90;;;19.10;87.40;;;;;;5046290;28;20210;-75
2021/07/09 08:32:50;;;;;;;10.30;5.67;;;19.20;88.00;;;;;;5052602;28;20442;-76
2021/07/09 08:35:16;;;;;;;8.70;5.43;;;19.30;87.40;;;;;;5052925;28;20197;-74
2021/07/09 08:37:42;;;;;;;8.63;6.07;;;19.40;86.80;;;;;;5052614;28;20519;-77
2021/07/09 08:40:09;;;;;;;6.40;4.70;;;19.50;86.50;;;;;;5051305;28;21086;-75
2021/07/09 08:42:37;;;;;;;6.53;5.30;;;19.60;83.10;;;;;;5045322;28;20458;-76
2021/07/09 08:45:04;;;;;;;8.70;4.70;;;19.60;84.40;;;;;;5053038;28;20434;-77
2021/07/09 08:47:32;;;;;;;9.20;5.40;;;19.80;84.40;;;;;;5051521;28;20484;-75
2021/07/09 08:50:00;;;;;;;8.90;5.53;;;19.90;84.00;;;;;;5046004;28;20560;-76
2021/07/09 08:52:26;;;;;;;9.70;5.73;;;20.00;82.80;;;;;;5052489;28;20427;-76
2021/07/09 08:54:52;;;;;;;9.27;5.43;;;20.00;82.80;;;;;;5053605;28;20499;-76
2021/07/09 08:57:18;;;;;;;10.90;5.50;;;20.10;82.50;;;;;;5054202;28;20188;-75
2021/07/09 08:59:43;;;;;;;9.03;6.00;;;20.20;81.20;;;;;;5058154;28;20204;-75
2021/07/09 09:02:09;;;;;;;7.90;5.30;;;20.30;82.40;;;;;;5063328;28;20185;-75
2021/07/09 09:04:36;;;;;;;7.60;5.50;;;20.50;82.50;;;;;;5067269;28;20203;-75
2021/07/09 09:07:11;;;;;;;9.00;5.87;;;20.50;80.50;;;;;;5055070;28;20688;-76
2021/07/09 09:09:39;;;;;;;8.20;5.70;;;20.60;81.40;;;;;;5061587;28;21104;-75
2021/07/09 09:12:09;;;;;;;11.00;6.30;;;20.60;79.30;;;;;;5060515;28;20420;-75
2021/07/09 09:14:40;;;;;;;9.57;6.27;;;20.70;79.50;;;;;;5070417;28;20538;-75
2021/07/09 09:17:35;;;;;;;10.13;5.80;;;20.80;80.50;;;;;;5056211;28;20477;-76
2021/07/09 09:20:04;;;;;;;8.50;5.73;;;20.80;78.00;;;;;;5052471;28;20834;-76
2021/07/09 09:22:30;;;;;;;8.47;6.03;;;20.70;79.30;;;;;;5052299;28;20431;-77
2021/07/09 09:24:58;;;;;;;8.47;6.30;;;20.80;79.00;;;;;;5052950;28;20430;-78
2021/07/09 09:27:24;;;;;;;10.20;6.43;;;20.80;78.30;;;;;;5063088;28;20188;-76
2021/07/09 09:29:50;;;;;;;10.90;6.10;;;20.90;77.80;;;;;;5051182;28;20489;-75
2021/07/09 09:32:16;;;;;;;10.93;6.40;;;21.00;77.70;;;;;;5051679;28;20705;-76
2021/07/09 09:34:46;;;;;;;7.10;5.37;;;21.20;77.40;;;;;;5052518;28;20201;-75
2021/07/09 09:37:16;;;;;;;7.90;5.50;;;21.20;76.10;;;;;;5051931;28;20419;-76
2021/07/09 09:39:46;;;;;;;7.00;5.63;;;21.10;76.50;;;;;;5052107;28;20449;-77
2021/07/09 09:42:26;;;;;;;8.87;5.50;;;21.10;77.30;;;;;;5046107;28;20425;-76
2021/07/09 09:44:57;;;;;;;9.83;5.97;;;21.20;75.70;;;;;;5051400;28;20519;-75
2021/07/09 09:47:27;;;;;;;11.40;5.87;;;21.00;76.20;;;;;;5051575;28;20427;-75
2021/07/09 09:50:00;;;;;;;8.43;6.03;;;20.80;77.60;;;;;;5047237;28;20493;-75
2021/07/09 09:52:36;;;;;;;12.20;6.30;;;20.60;78.60;;;;;;5051681;28;20428;-76
2021/07/09 09:55:08;;;;;;;8.83;6.53;;;20.50;79.20;;;;;;5051316;28;20506;-76
2021/07/09 09:57:34;;;;;;;10.30;6.13;;;20.70;78.70;;;;;;5050434;28;20423;-76
2021/07/09 10:00:00;;;;;;;8.60;5.83;;;20.70;75.70;;;;;;5050342;28;20494;-76
2021/07/09 10:02:26;;;;;;;7.93;5.10;;;20.90;76.80;;;;;;5046597;28;20949;-77
2021/07/09 10:04:53;;;;;;;8.30;5.37;;;21.10;73.90;;;;;;5044456;28;20448;-77
2021/07/09 10:07:19;;;;;;;6.10;5.20;;;21.20;74.20;;;;;;5045762;28;20193;-75
2021/07/09 10:09:45;;;;;;;9.80;6.20;;;21.20;74.60;;;;;;5051677;28;20496;-76
2021/07/09 10:12:14;;;;;;;10.10;6.63;;;21.30;75.10;;;;;;5051439;28;20431;-75
2021/07/09 10:14:44;;;;;;;9.00;6.03;;;21.30;75.40;;;;;;5051852;28;20430;-75
2021/07/09 10:17:10;;;;;;;11.90;6.33;;;21.50;75.40;;;;;;5051387;28;20818;-76
2021/07/09 10:19:41;;;;;;;9.10;6.67;;;21.40;73.90;;;;;;5046443;28;20444;-74
2021/07/09 10:22:08;;;;;;;7.83;5.53;;;21.20;74.20;;;;;;5041598;28;20427;-76
2021/07/09 10:24:35;;;;;;;10.17;6.60;;;21.20;74.30;;;;;;5050753;28;20431;-75
2021/07/09 10:27:02;;;;;;;12.00;7.20;;;21.00;75.40;;;;;;5050368;28;20791;-75
2021/07/09 10:29:34;;;;;;;9.93;6.57;;;21.20;75.10;;;;;;5051167;28;20471;-74
2021/07/09 10:32:04;;;;;;;11.97;6.57;;;21.40;74.80;;;;;;5050009;28;20459;-75
2021/07/09 10:34:39;;;;;;;12.00;7.30;;;21.70;72.00;;;;;;5050869;28;20443;-76
2021/07/09 10:37:08;;;;;;;11.50;6.50;;;21.40;71.60;;;;;;5046753;28;20984;-77
2021/07/09 10:39:37;;;;;;;11.40;7.47;;;21.10;74.60;;;;;;5048624;28;20443;-76
2021/07/09 10:42:14;;;;;;;12.10;8.00;;;21.10;76.40;;;;;;5050682;28;20465;-75
2021/07/09 10:44:58;;;;;;;16.50;9.80;;;21.20;76.80;;;;;;5048649;28;20428;-74
2021/07/09 10:47:37;;;;;;;16.93;9.40;;;21.70;72.00;;;;;;5049166;28;20431;-74
2021/07/09 10:50:15;;;;;;;11.03;8.63;;;22.00;71.10;;;;;;5052683;28;20543;-74
2021/07/09 10:53:00;;;;;;;14.73;10.03;;;22.40;69.50;;;;;;5049292;28;20432;-73
2021/07/09 10:55:26;;;;;;;11.13;7.90;;;22.60;68.20;;;;;;5046495;28;20429;-74
2021/07/09 10:58:27;;;;;;;17.80;9.27;;;23.10;67.60;;;;;;5050885;28;20434;-75
2021/07/09 11:01:26;;;;;;;15.20;9.40;;;22.70;67.60;;;;;;5049802;28;20428;-74
2021/07/09 11:03:57;;;;;;;13.97;9.20;;;22.50;67.20;;;;;;5049250;28;20440;-74
2021/07/09 11:06:31;;;;;;;13.93;9.40;;;22.20;68.50;;;;;;5051044;28;20421;-76
2021/07/09 11:09:04;;;;;;;15.63;9.30;;;22.30;69.80;;;;;;5049990;28;20491;-74
2021/07/09 11:11:44;;;;;;;12.33;8.70;;;22.10;69.80;;;;;;5049921;28;20980;-75
2021/07/09 11:14:13;;;;;;;16.73;9.67;;;21.90;70.80;;;;;;5051684;28;20531;-75
2021/07/09 11:16:44;;;;;;;13.10;8.40;;;21.80;71.80;;;;;;5050934;28;20425;-74
2021/07/09 11:19:19;;;;;;;15.33;8.07;;;21.70;72.70;;;;;;5050806;28;20456;-75
2021/07/09 11:21:53;;;;;;;12.63;9.57;;;21.90;72.90;;;;;;5049786;28;20428;-75
2021/07/09 11:24:28;;;;;;;12.03;8.80;;;21.90;72.00;;;;;;5049923;28;20432;-74
2021/07/09 11:27:01;;;;;;;12.37;8.77;;;21.90;73.30;;;;;;5048118;28;20441;-74
2021/07/09 11:29:31;;;;;;;14.23;9.13;;;22.10;72.40;;;;;;5050243;28;20477;-77
2021/07/09 11:32:15;;;;;;;13.23;9.60;;;22.40;71.40;;;;;;5047438;28;20431;-74
2021/07/09 11:34:55;;;;;;;13.80;9.50;;;22.20;71.80;;;;;;5049792;28;20503;-74
2021/07/09 11:37:24;;;;;;;13.80;9.10;;;22.00;72.00;;;;;;5044621;28;20486;-76
2021/07/09 11:40:06;;;;;;;15.07;9.60;;;21.90;71.80;;;;;;5048989;28;20445;-76
2021/07/09 11:42:34;;;;;;;15.13;10.00;;;21.90;72.40;;;;;;5046835;28;20439;-77
2021/07/09 11:45:03;;;;;;;14.70;9.40;;;22.10;71.80;;;;;;5052348;28;20433;-75
2021/07/09 11:47:34;;;;;;;14.13;9.10;;;22.20;71.60;;;;;;5054847;28;20428;-76
2021/07/09 11:50:18;;;;;;;13.17;8.20;;;22.60;67.00;;;;;;5050720;28;20477;-75
2021/07/09 11:52:49;;;;;;;16.63;10.50;;;23.10;66.60;;;;;;5056299;28;20429;-74
2021/07/09 11:55:21;;;;;;;16.03;10.13;;;23.40;64.50;;;;;;5054534;28;20437;-75
2021/07/09 11:57:47;;;;;;;14.70;9.90;;;23.10;64.50;;;;;;5053274;28;20433;-76
2021/07/09 12:00:17;;;;;;;18.53;11.00;;;22.70;66.90;;;;;;5053787;28;20595;-74
2021/07/09 12:02:48;;;;;;;21.00;11.60;;;22.40;69.70;;;;;;5052744;28;20228;-74
2021/07/09 12:05:19;;;;;;;17.93;11.10;;;21.70;72.00;;;;;;5047683;28;20866;-74
2021/07/09 12:07:47;;;;;;;15.37;11.33;;;21.80;72.90;;;;;;5047263;28;20519;-74
2021/07/09 12:10:17;;;;;;;18.40;10.93;;;22.20;71.40;;;;;;5053319;28;20479;-73
2021/07/09 12:12:45;;;;;;;18.23;11.03;;;22.40;70.70;;;;;;5052756;28;20429;-74
2021/07/09 12:15:12;;;;;;;18.27;11.33;;;22.50;68.60;;;;;;5053251;28;20731;-75
2021/07/09 12:17:46;;;;;;;18.87;11.20;;;22.10;70.20;;;;;;5053223;28;21297;-74
2021/07/09 12:20:14;;;;;;;18.00;11.17;;;21.70;72.30;;;;;;5054829;28;20471;-75
2021/07/09 12:22:51;;;;;;;14.57;10.60;;;21.30;73.90;;;;;;5053314;28;20438;-76
2021/07/09 12:25:35;;;;;;;16.83;10.50;;;21.50;74.20;;;;;;5053444;28;20442;-75
2021/07/09 12:28:12;;;;;;;19.00;13.00;;;21.80;74.60;;;;;;5053056;28;20461;-74
2021/07/09 12:30:48;;;;;;;17.20;11.20;;;22.50;72.60;;;;;;5047469;28;20585;-74
2021/07/09 12:33:30;;;;;;;14.90;10.10;;;22.90;70.80;;;;;;5054578;28;20437;-75
2021/07/09 12:36:04;;;;;;;17.30;10.83;;;22.80;71.60;;;;;;5055085;28;20445;-75
2021/07/09 12:38:33;;;;;;;14.13;10.47;;;22.70;72.60;;;;;;5054053;28;20444;-77
2021/07/09 12:41:07;;;;;;;13.97;10.53;;;22.90;71.30;;;;;;5053250;28;20425;-75
2021/07/09 12:43:45;;;;;;;15.73;10.33;;;22.90;70.20;;;;;;5055014;28;20496;-75
2021/07/09 12:46:22;;;;;;;19.13;9.80;;;23.10;70.10;;;;;;5054801;28;20483;-75
2021/07/09 12:48:56;;;;;;;16.20;9.83;;;23.30;68.50;;;;;;5055099;28;20448;-75